Flight Track Log - Related Links

Times and Time Zones

All times are in EDT time to prevent confusion due to time zone crossing. See the N317FL flight status page for this flight to view local times or setup timezone preferences in your user account.

Time Position Orientation Groundspeed Altitude Reporting Facility
EDT Latitude Longitude Course Direction KTS MPH feet Rate Location/Type
Tue 02:47:51 PM 30.5308 -90.4294 238° Southwest 184 212 1,300  Level Houston Center
Tue 02:49:03 PM 30.5003 -90.4858 238° Southwest 210 242 5,200 3,733 Climbing Houston Center
Tue 02:50:06 PM 30.4708 -90.5489 242° Southwest 231 266 9,700 3,936 Climbing Houston Center
Tue 02:51:08 PM 30.4550 -90.6242 256° West 240 276 13,400 3,145 Climbing Houston Center
Tue 02:52:10 PM 30.4347 -90.7153 256° West 289 333 16,200 2,613 Climbing Houston Center
Tue 02:53:12 PM 30.4147 -90.8158 257° West 318 366 18,800 2,565 Climbing Houston Center
Tue 02:54:14 PM 30.3922 -90.9211 256° West 335 386 21,500 2,032 Climbing Houston Center
Tue 02:55:16 PM 30.3639 -91.0486 256° West 341 392 23,000 1,500 Climbing Houston Center
Tue 02:56:18 PM 30.3392 -91.1647 256° West 369 425 24,600 1,742 Climbing Houston Center
Tue 02:57:20 PM 30.3142 -91.2792 256° West 367 422 26,600 1,887 Climbing Houston Center
Tue 02:58:22 PM 30.2908 -91.3936 257° West 366 421 28,500 1,500 Climbing Houston Center
Tue 02:59:24 PM 30.2639 -91.5128 255° West 381 438 29,700 726 Climbing Houston Center
Tue 03:00:26 PM 30.2322 -91.6644 256° West 403 464 30,000 581 Climbing Houston Center
Tue 03:01:28 PM 30.2031 -91.7894 255° West 407 468 30,900 912 Climbing Houston Center
Tue 03:02:31 PM 30.1742 -91.8928 252° West 387 445 31,900 528 Climbing Houston Center
Tue 03:03:33 PM 30.1275 -92.0311 249° West 383 441 32,000 576 Climbing Houston Center
Tue 03:09:38 PM 29.8824 -92.7508 249° West 389 448 36,000 587 Climbing FlightAware ADS-B
Tue 03:10:22 PM 29.8532 -92.8355 248° West 388 447 36,000  Level FlightAware ADS-B
Tue 03:11:00 PM 29.8283 -92.9075 248° West 387 445 36,000  Level FlightAware ADS-B
Tue 03:11:56 PM 29.7914 -93.0138 248° West 386 444 36,000  Level FlightAware ADS-B
Tue 03:12:26 PM 29.7713 -93.0713 248° West 386 444 36,000  Level FlightAware ADS-B
Tue 03:12:57 PM 29.7503 -93.1315 248° West 386 444 36,000  Level FlightAware ADS-B
Tue 03:13:28 PM 29.7297 -93.1906 248° West 386 444 36,000  Level FlightAware ADS-B
Tue 03:13:59 PM 29.7094 -93.2486 248° West 385 443 36,000 -441 Level FlightAware ADS-B
Tue 03:14:36 PM 29.6842 -93.3205 248° West 394 453 35,500 -870 Descending FlightAware ADS-B
Tue 03:15:08 PM 29.6624 -93.3824 248° West 403 464 35,000 -968 Descending FlightAware ADS-B
Tue 03:15:38 PM 29.6413 -93.4427 248° West 407 468 34,500 -1,000 Descending FlightAware ADS-B
Tue 03:16:08 PM 29.6197 -93.5037 248° West 406 467 34,000 -1,180 Descending FlightAware ADS-B
Tue 03:16:39 PM 29.5980 -93.5652 248° West 407 468 33,300 -1,377 Descending FlightAware ADS-B
Tue 03:17:09 PM 29.5767 -93.6254 248° West 403 464 32,600 -1,524 Descending FlightAware ADS-B
Tue 03:17:42 PM 29.5537 -93.6903 248° West 402 463 31,700 -2,286 Descending FlightAware ADS-B
Tue 03:18:12 PM 29.5325 -93.7501 248° West 394 453 30,200 -2,900 Descending FlightAware ADS-B
Tue 03:18:42 PM 29.5140 -93.8030 248° West 379 436 28,800 -3,091 Descending FlightAware ADS-B
Tue 03:18:45 PM 29.5103 -93.8122 245° Southwest 375 432 28,500 -3,529 Descending FlightAware ADS-B
Tue 03:19:16 PM 29.4906 -93.8674 248° West 361 415 26,800 -3,246 Descending FlightAware ADS-B
Tue 03:19:46 PM 29.4717 -93.9205 248° West 362 417 25,200 -3,097 Descending FlightAware ADS-B
Tue 03:20:18 PM 29.4515 -93.9773 248° West 363 418 23,600 -3,194 Descending FlightAware ADS-B
Tue 03:20:48 PM 29.4324 -94.0308 248° West 361 415 21,900 -3,300 Descending FlightAware ADS-B
Tue 03:21:18 PM 29.4134 -94.0837 248° West 358 412 20,300 -2,900 Descending FlightAware ADS-B
Tue 03:21:48 PM 29.3947 -94.1359 248° West 347 399 19,000 -2,533 Descending FlightAware ADS-B
Tue 03:22:03 PM 29.3855 -94.1615 248° West 340 391 18,400 -2,348 Descending FlightAware ADS-B
Tue 03:22:11 PM 29.3824 -94.1750 255° West 335 386 18,100 -2,250 Descending FlightAware ADS-B
Tue 03:22:19 PM 29.3816 -94.1879 266° West 329 379 17,800 -2,526 Descending FlightAware ADS-B
Tue 03:22:49 PM 29.3802 -94.2403 268° West 324 373 16,500 -2,459 Descending FlightAware ADS-B
Tue 03:23:20 PM 29.3779 -94.2932 267° West 330 380 15,300 -2,361 Descending FlightAware ADS-B
Tue 03:23:50 PM 29.3757 -94.3464 267° West 334 384 14,100 -2,200 Descending FlightAware ADS-B
Tue 03:24:20 PM 29.3735 -94.4000 267° West 329 379 13,100 -1,759 Descending FlightAware ADS-B
Tue 03:24:48 PM 29.3715 -94.4477 267° West 322 371 12,400 -1,448 Descending FlightAware ADS-B
Tue 03:25:18 PM 29.3695 -94.4989 267° West 316 364 11,700 -1,522 Descending FlightAware ADS-B
Tue 03:25:55 PM 29.3669 -94.5601 267° West 310 357 10,700 -1,378 Descending FlightAware ADS-B
Tue 03:26:32 PM 29.3770 -94.6150 282° West 297 342 10,000 -716 Descending FlightAware ADS-B
Tue 03:27:02 PM 29.3910 -94.6600 290° West 292 336 9,900 -100 Descending FlightAware ADS-B
Tue 03:27:32 PM 29.4040 -94.7010 290° West 290 334 9,900  Level FlightAware ADS-B
Tue 03:27:57 PM 29.4160 -94.7410 289° West 303 349 9,900  Level FlightAware ADS-B
Tue 03:28:27 PM 29.4300 -94.7860 290° West 316 364 9,900  Level FlightAware ADS-B
Tue 03:28:57 PM 29.4450 -94.8350 289° West 321 369 9,900  Level FlightAware ADS-B
Tue 03:29:07 PM 29.4500 -94.8530 288° West 317 365 9,900  Level FlightAware ADS-B
Tue 03:29:37 PM 29.4690 -94.8940 298° West 311 358 9,900  Level FlightAware ADS-B
Tue 03:29:52 PM 29.4800 -94.9160 300° West 294 338 9,900 -450 Level FlightAware ADS-B
Tue 03:30:17 PM 29.4950 -94.9470 299° West 272 313 9,600 -982 Descending FlightAware ADS-B
Tue 03:30:47 PM 29.5130 -94.9850 299° West 269 310 9,000 -1,300 Descending FlightAware ADS-B
Tue 03:31:17 PM 29.5320 -95.0230 300° West 269 310 8,300 -1,350 Descending FlightAware ADS-B
Tue 03:31:27 PM 29.5380 -95.0350 300° West 269 310 8,100 -1,200 Descending FlightAware ADS-B
Tue 03:31:57 PM 29.5560 -95.0720 299° West 269 310 7,500 -1,200 Descending FlightAware ADS-B
Tue 03:32:27 PM 29.5750 -95.1110 299° West 269 310 6,900 -1,200 Descending FlightAware ADS-B
Tue 03:32:52 PM 29.5910 -95.1440 299° West 267 307 6,400 -1,200 Descending FlightAware ADS-B
Tue 03:33:07 PM 29.5980 -95.1610 295° West 270 311 6,100 -960 Descending FlightAware ADS-B
Tue 03:33:17 PM 29.6010 -95.1750 284° West 273 314 6,000 -300 Descending FlightAware ADS-B
Tue 03:33:47 PM 29.6060 -95.2180 278° West 259 298 5,900 -125 Descending FlightAware ADS-B
Tue 03:34:05 PM 29.6096 -95.2452 279° West 251 289 5,900  Level FlightAware ADS-B
Tue 03:34:21 PM 29.6123 -95.2654 279° West 247 284 5,900  Level FlightAware ADS-B
Tue 03:34:36 PM 29.6149 -95.2848 279° West 244 281 5,900  Level FlightAware ADS-B
Tue 03:34:56 PM 29.6180 -95.3096 278° West 234 269 5,900 -686 Level FlightAware ADS-B
Tue 03:35:11 PM 29.6203 -95.3272 279° West 210 242 5,500 -2,323 Descending FlightAware ADS-B
Tue 03:35:27 PM 29.6225 -95.3443 278° West 210 242 4,700 -3,097 Descending FlightAware ADS-B
Tue 03:35:42 PM 29.6246 -95.3608 278° West 210 242 3,900 -3,000 Descending FlightAware ADS-B
Tue 03:35:53 PM 29.6261 -95.3731 278° West 209 241 3,400 -3,000 Descending FlightAware ADS-B
Tue 03:35:58 PM 29.6271 -95.3792 281° West 209 241 3,100 -3,000 Descending FlightAware ADS-B
Tue 03:36:01 PM 29.6280 -95.3822 289° West 209 241 3,000 -2,571 Descending FlightAware ADS-B
Tue 03:36:05 PM 29.6291 -95.3857 290° West 209 241 2,800 -3,333 Descending FlightAware ADS-B
Tue 03:36:10 PM 29.6316 -95.3906 300° West 209 241 2,500 -3,000 Descending FlightAware ADS-B
Tue 03:36:13 PM 29.6339 -95.3937 310° West 209 241 2,400 -2,000 Descending FlightAware ADS-B
Tue 03:36:16 PM 29.6363 -95.3958 323° Northwest 205 236 2,300 -1,714 Descending FlightAware ADS-B
Tue 03:36:20 PM 29.6394 -95.3977 332° Northwest 202 232 2,200 -1,333 Descending FlightAware ADS-B
Tue 03:36:25 PM 29.6437 -95.3990 345° North 200 230 2,100 -750 Descending FlightAware ADS-B
Tue 03:36:28 PM 29.6465 -95.3991 358° North 200 230 2,100 -857 Level FlightAware ADS-B
Tue 03:36:32 PM 29.6502 -95.3985 North 200 230 2,000 -750 Descending FlightAware ADS-B
Tue 03:36:36 PM 29.6535 -95.3970 22° Northeast 198 228 2,000  Level FlightAware ADS-B
Tue 03:36:40 PM 29.6566 -95.3947 33° Northeast 197 227 2,000 -857 Level FlightAware ADS-B
Tue 03:36:43 PM 29.6586 -95.3925 44° Northeast 193 222 1,900 -750 Descending FlightAware ADS-B
Tue 03:36:48 PM 29.6610 -95.3884 56° Northeast 189 217 1,900  Level FlightAware ADS-B
Tue 03:36:52 PM 29.6626 -95.3848 63° Northeast 185 213 1,900  Level FlightAware ADS-B
Tue 03:36:59 PM 29.6645 -95.3787 70° East 177 204 1,900 -240 Level FlightAware ADS-B
Tue 03:37:17 PM 29.6684 -95.3634 74° East 162 186 1,800 -486 Descending FlightAware ADS-B
Tue 03:37:36 PM 29.6728 -95.3477 72° East 162 186 1,600 -943 Descending FlightAware ADS-B
Tue 03:38:27 PM 29.6700 -95.3110 95° East 123 142 700 -963 Descending FlightAware ADS-B
Tue 03:38:57 PM 29.6610 -95.2970 126° Southeast 118 136 300 -655 Descending FlightAware ADS-B
Tue 03:39:22 PM 29.6510 -95.2850 134° Southeast 111 128 100 -480 Descending FlightAware ADS-B
Tue 03:39:52 PM 29.6410 -95.2730 134° Southeast 111 128 -200 Descending FlightAware ADS-B

Login

Don't have an account? Register now (free) for customized features, flight alerts, and more!